sensor_id;sensor_type;location;lat;lon;timestamp;P1;durP1;ratioP1;P2;durP2;ratioP2
44989;SDS011;30723;51.206;3.326;2022-11-30T00:00:58;33.72;;;17.55;;
44989;SDS011;30723;51.206;3.326;2022-11-30T00:03:32;34.60;;;18.25;;
44989;SDS011;30723;51.206;3.326;2022-11-30T00:06:02;32.13;;;17.80;;
44989;SDS011;30723;51.206;3.326;2022-11-30T00:08:31;30.42;;;18.58;;
44989;SDS011;30723;51.206;3.326;2022-11-30T00:10:57;28.33;;;16.92;;
44989;SDS011;30723;51.206;3.326;2022-11-30T00:13:23;28.88;;;17.02;;
44989;SDS011;30723;51.206;3.326;2022-11-30T00:15:49;28.83;;;16.88;;
44989;SDS011;30723;51.206;3.326;2022-11-30T00:18:14;27.95;;;16.15;;
44989;SDS011;30723;51.206;3.326;2022-11-30T00:20:42;28.08;;;16.25;;
44989;SDS011;30723;51.206;3.326;2022-11-30T00:23:08;29.80;;;16.30;;
44989;SDS011;30723;51.206;3.326;2022-11-30T00:25:34;27.90;;;16.70;;
44989;SDS011;30723;51.206;3.326;2022-11-30T00:28:01;30.63;;;16.23;;
44989;SDS011;30723;51.206;3.326;2022-11-30T00:30:27;27.50;;;15.68;;
44989;SDS011;30723;51.206;3.326;2022-11-30T00:32:56;29.05;;;16.65;;
44989;SDS011;30723;51.206;3.326;2022-11-30T00:35:22;29.10;;;15.38;;
44989;SDS011;30723;51.206;3.326;2022-11-30T00:37:48;29.73;;;16.40;;
44989;SDS011;30723;51.206;3.326;2022-11-30T00:40:14;30.05;;;15.95;;
44989;SDS011;30723;51.206;3.326;2022-11-30T00:42:41;30.58;;;17.13;;
44989;SDS011;30723;51.206;3.326;2022-11-30T00:45:06;29.20;;;16.33;;
44989;SDS011;30723;51.206;3.326;2022-11-30T00:47:32;30.35;;;16.48;;
44989;SDS011;30723;51.206;3.326;2022-11-30T00:49:58;28.85;;;16.48;;
44989;SDS011;30723;51.206;3.326;2022-11-30T00:52:24;32.45;;;17.17;;
44989;SDS011;30723;51.206;3.326;2022-11-30T00:54:50;27.73;;;15.55;;
44989;SDS011;30723;51.206;3.326;2022-11-30T00:57:15;34.40;;;17.30;;
44989;SDS011;30723;51.206;3.326;2022-11-30T00:59:41;30.63;;;17.45;;
44989;SDS011;30723;51.206;3.326;2022-11-30T01:02:07;32.70;;;17.35;;
44989;SDS011;30723;51.206;3.326;2022-11-30T01:04:33;37.53;;;18.08;;
44989;SDS011;30723;51.206;3.326;2022-11-30T01:06:58;29.17;;;16.17;;
44989;SDS011;30723;51.206;3.326;2022-11-30T01:09:24;36.40;;;17.98;;
44989;SDS011;30723;51.206;3.326;2022-11-30T01:11:50;33.40;;;17.10;;
44989;SDS011;30723;51.206;3.326;2022-11-30T01:14:16;32.22;;;17.40;;
44989;SDS011;30723;51.206;3.326;2022-11-30T01:16:41;30.70;;;17.25;;
44989;SDS011;30723;51.206;3.326;2022-11-30T01:19:07;37.25;;;17.67;;
44989;SDS011;30723;51.206;3.326;2022-11-30T01:21:33;37.88;;;19.15;;
44989;SDS011;30723;51.206;3.326;2022-11-30T01:23:59;41.15;;;19.00;;
44989;SDS011;30723;51.206;3.326;2022-11-30T01:26:24;32.88;;;17.92;;
44989;SDS011;30723;51.206;3.326;2022-11-30T01:28:51;32.55;;;17.00;;
44989;SDS011;30723;51.206;3.326;2022-11-30T01:31:18;36.42;;;17.67;;
44989;SDS011;30723;51.206;3.326;2022-11-30T01:33:47;38.28;;;18.83;;
44989;SDS011;30723;51.206;3.326;2022-11-30T01:36:15;29.85;;;16.25;;
44989;SDS011;30723;51.206;3.326;2022-11-30T01:38:44;36.50;;;17.48;;
44989;SDS011;30723;51.206;3.326;2022-11-30T01:41:15;36.90;;;18.20;;
44989;SDS011;30723;51.206;3.326;2022-11-30T01:43:45;38.17;;;19.55;;
44989;SDS011;30723;51.206;3.326;2022-11-30T01:46:59;35.70;;;17.40;;
44989;SDS011;30723;51.206;3.326;2022-11-30T01:49:19;35.60;;;17.77;;
44989;SDS011;30723;51.206;3.326;2022-11-30T01:51:57;36.28;;;18.63;;
44989;SDS011;30723;51.206;3.326;2022-11-30T01:54:28;35.08;;;18.10;;
44989;SDS011;30723;51.206;3.326;2022-11-30T01:57:12;35.65;;;17.92;;
44989;SDS011;30723;51.206;3.326;2022-11-30T01:59:44;37.75;;;18.20;;
44989;SDS011;30723;51.206;3.326;2022-11-30T02:02:10;36.72;;;18.58;;
44989;SDS011;30723;51.206;3.326;2022-11-30T02:04:36;35.63;;;18.23;;
44989;SDS011;30723;51.206;3.326;2022-11-30T02:07:03;36.83;;;18.33;;
44989;SDS011;30723;51.206;3.326;2022-11-30T02:09:33;35.72;;;17.98;;
44989;SDS011;30723;51.206;3.326;2022-11-30T02:12:04;30.17;;;16.60;;
44989;SDS011;30723;51.206;3.326;2022-11-30T02:14:41;33.95;;;17.88;;
44989;SDS011;30723;51.206;3.326;2022-11-30T02:28:39;39.28;;;18.00;;
44989;SDS011;30723;51.206;3.326;2022-11-30T02:31:18;40.42;;;18.08;;
44989;SDS011;30723;51.206;3.326;2022-11-30T02:33:51;41.05;;;18.48;;
44989;SDS011;30723;51.206;3.326;2022-11-30T02:36:19;40.70;;;20.40;;
44989;SDS011;30723;51.206;3.326;2022-11-30T02:38:47;40.28;;;19.83;;
44989;SDS011;30723;51.206;3.326;2022-11-30T02:41:16;44.50;;;19.48;;
44989;SDS011;30723;51.206;3.326;2022-11-30T02:43:42;43.70;;;20.35;;
44989;SDS011;30723;51.206;3.326;2022-11-30T02:46:45;48.78;;;20.20;;
44989;SDS011;30723;51.206;3.326;2022-11-30T02:51:53;44.45;;;21.20;;
44989;SDS011;30723;51.206;3.326;2022-11-30T02:54:20;41.40;;;20.52;;
44989;SDS011;30723;51.206;3.326;2022-11-30T02:56:47;47.80;;;21.67;;
44989;SDS011;30723;51.206;3.326;2022-11-30T02:59:12;47.75;;;21.30;;
44989;SDS011;30723;51.206;3.326;2022-11-30T03:01:39;53.47;;;21.60;;
44989;SDS011;30723;51.206;3.326;2022-11-30T03:04:04;48.33;;;21.92;;
44989;SDS011;30723;51.206;3.326;2022-11-30T03:06:30;56.97;;;21.85;;
44989;SDS011;30723;51.206;3.326;2022-11-30T03:08:56;49.85;;;21.65;;
44989;SDS011;30723;51.206;3.326;2022-11-30T03:11:22;51.22;;;23.45;;
44989;SDS011;30723;51.206;3.326;2022-11-30T03:13:47;46.80;;;21.17;;
44989;SDS011;30723;51.206;3.326;2022-11-30T03:16:13;50.60;;;21.77;;
44989;SDS011;30723;51.206;3.326;2022-11-30T03:18:39;45.75;;;20.88;;
44989;SDS011;30723;51.206;3.326;2022-11-30T03:21:06;51.67;;;21.85;;
44989;SDS011;30723;51.206;3.326;2022-11-30T03:23:33;49.33;;;21.23;;
44989;SDS011;30723;51.206;3.326;2022-11-30T03:26:00;53.75;;;22.98;;
44989;SDS011;30723;51.206;3.326;2022-11-30T03:28:26;56.00;;;22.77;;
44989;SDS011;30723;51.206;3.326;2022-11-30T03:30:52;46.60;;;21.55;;
44989;SDS011;30723;51.206;3.326;2022-11-30T03:33:18;54.67;;;23.23;;
44989;SDS011;30723;51.206;3.326;2022-11-30T03:35:44;53.10;;;22.95;;
44989;SDS011;30723;51.206;3.326;2022-11-30T03:38:10;57.60;;;21.92;;
44989;SDS011;30723;51.206;3.326;2022-11-30T03:40:36;52.95;;;23.10;;
44989;SDS011;30723;51.206;3.326;2022-11-30T03:43:02;53.75;;;22.40;;
44989;SDS011;30723;51.206;3.326;2022-11-30T03:45:28;51.28;;;22.48;;
44989;SDS011;30723;51.206;3.326;2022-11-30T03:47:54;61.22;;;24.08;;
44989;SDS011;30723;51.206;3.326;2022-11-30T03:50:20;53.08;;;22.88;;
44989;SDS011;30723;51.206;3.326;2022-11-30T03:52:46;55.05;;;23.58;;
44989;SDS011;30723;51.206;3.326;2022-11-30T03:55:11;55.50;;;22.65;;
44989;SDS011;30723;51.206;3.326;2022-11-30T03:57:37;47.63;;;21.98;;
44989;SDS011;30723;51.206;3.326;2022-11-30T04:00:04;50.10;;;22.63;;
44989;SDS011;30723;51.206;3.326;2022-11-30T04:02:31;52.15;;;21.77;;
44989;SDS011;30723;51.206;3.326;2022-11-30T04:04:57;53.40;;;21.17;;
44989;SDS011;30723;51.206;3.326;2022-11-30T04:07:22;56.45;;;22.33;;
44989;SDS011;30723;51.206;3.326;2022-11-30T04:09:48;50.65;;;21.58;;
44989;SDS011;30723;51.206;3.326;2022-11-30T04:12:14;55.08;;;22.13;;
44989;SDS011;30723;51.206;3.326;2022-11-30T04:14:40;49.42;;;21.02;;
44989;SDS011;30723;51.206;3.326;2022-11-30T04:17:05;55.13;;;22.55;;
44989;SDS011;30723;51.206;3.326;2022-11-30T04:19:31;56.97;;;20.70;;
44989;SDS011;30723;51.206;3.326;2022-11-30T04:21:57;50.53;;;21.67;;
44989;SDS011;30723;51.206;3.326;2022-11-30T04:24:22;51.00;;;21.60;;
44989;SDS011;30723;51.206;3.326;2022-11-30T04:26:48;51.88;;;21.40;;
44989;SDS011;30723;51.206;3.326;2022-11-30T04:29:14;50.17;;;21.83;;
44989;SDS011;30723;51.206;3.326;2022-11-30T04:31:40;52.15;;;22.52;;
44989;SDS011;30723;51.206;3.326;2022-11-30T04:34:05;54.25;;;21.75;;
44989;SDS011;30723;51.206;3.326;2022-11-30T04:36:31;50.13;;;21.08;;
44989;SDS011;30723;51.206;3.326;2022-11-30T04:38:57;53.20;;;22.15;;
44989;SDS011;30723;51.206;3.326;2022-11-30T04:41:22;56.22;;;21.73;;
44989;SDS011;30723;51.206;3.326;2022-11-30T04:43:48;54.35;;;21.83;;
44989;SDS011;30723;51.206;3.326;2022-11-30T04:46:14;53.10;;;22.83;;
44989;SDS011;30723;51.206;3.326;2022-11-30T04:48:40;56.95;;;21.75;;
44989;SDS011;30723;51.206;3.326;2022-11-30T04:51:06;50.60;;;21.25;;
44989;SDS011;30723;51.206;3.326;2022-11-30T04:53:33;58.65;;;22.13;;
44989;SDS011;30723;51.206;3.326;2022-11-30T04:56:09;50.85;;;20.75;;
44989;SDS011;30723;51.206;3.326;2022-11-30T04:58:35;52.83;;;21.92;;
44989;SDS011;30723;51.206;3.326;2022-11-30T05:01:02;54.58;;;21.13;;
44989;SDS011;30723;51.206;3.326;2022-11-30T05:03:28;52.72;;;20.85;;
44989;SDS011;30723;51.206;3.326;2022-11-30T05:05:54;58.08;;;22.60;;
44989;SDS011;30723;51.206;3.326;2022-11-30T05:08:20;57.10;;;22.48;;
44989;SDS011;30723;51.206;3.326;2022-11-30T05:10:50;54.10;;;21.85;;
44989;SDS011;30723;51.206;3.326;2022-11-30T05:13:17;53.28;;;21.95;;
44989;SDS011;30723;51.206;3.326;2022-11-30T05:15:43;59.28;;;22.02;;
44989;SDS011;30723;51.206;3.326;2022-11-30T05:18:10;55.65;;;21.83;;
44989;SDS011;30723;51.206;3.326;2022-11-30T05:20:36;59.72;;;21.80;;
44989;SDS011;30723;51.206;3.326;2022-11-30T05:23:02;57.42;;;22.30;;
44989;SDS011;30723;51.206;3.326;2022-11-30T05:25:28;53.13;;;21.40;;
44989;SDS011;30723;51.206;3.326;2022-11-30T05:27:53;57.58;;;22.35;;
44989;SDS011;30723;51.206;3.326;2022-11-30T05:30:19;56.95;;;22.73;;
44989;SDS011;30723;51.206;3.326;2022-11-30T05:32:45;61.53;;;21.58;;
44989;SDS011;30723;51.206;3.326;2022-11-30T05:35:11;58.58;;;23.13;;
44989;SDS011;30723;51.206;3.326;2022-11-30T05:37:39;57.55;;;22.73;;
44989;SDS011;30723;51.206;3.326;2022-11-30T05:40:05;54.00;;;22.30;;
44989;SDS011;30723;51.206;3.326;2022-11-30T05:42:31;51.88;;;20.95;;
44989;SDS011;30723;51.206;3.326;2022-11-30T05:44:57;57.75;;;23.73;;
44989;SDS011;30723;51.206;3.326;2022-11-30T05:47:22;57.90;;;22.65;;
44989;SDS011;30723;51.206;3.326;2022-11-30T05:49:48;54.58;;;22.25;;
44989;SDS011;30723;51.206;3.326;2022-11-30T05:52:14;55.75;;;22.45;;
44989;SDS011;30723;51.206;3.326;2022-11-30T05:54:39;56.50;;;22.45;;
44989;SDS011;30723;51.206;3.326;2022-11-30T05:57:05;50.55;;;21.67;;
44989;SDS011;30723;51.206;3.326;2022-11-30T05:59:31;55.35;;;22.02;;
44989;SDS011;30723;51.206;3.326;2022-11-30T06:01:57;57.33;;;22.55;;
44989;SDS011;30723;51.206;3.326;2022-11-30T06:04:22;62.33;;;23.08;;
44989;SDS011;30723;51.206;3.326;2022-11-30T06:06:48;68.70;;;24.77;;
44989;SDS011;30723;51.206;3.326;2022-11-30T06:09:16;60.13;;;24.15;;
44989;SDS011;30723;51.206;3.326;2022-11-30T06:11:42;61.80;;;23.27;;
44989;SDS011;30723;51.206;3.326;2022-11-30T06:14:07;63.17;;;22.73;;
44989;SDS011;30723;51.206;3.326;2022-11-30T06:16:33;62.67;;;23.15;;
44989;SDS011;30723;51.206;3.326;2022-11-30T06:18:59;58.95;;;22.23;;
44989;SDS011;30723;51.206;3.326;2022-11-30T06:21:24;61.13;;;23.30;;
44989;SDS011;30723;51.206;3.326;2022-11-30T06:23:51;61.63;;;22.75;;
44989;SDS011;30723;51.206;3.326;2022-11-30T06:26:17;60.28;;;21.52;;
44989;SDS011;30723;51.206;3.326;2022-11-30T06:28:43;64.78;;;23.70;;
44989;SDS011;30723;51.206;3.326;2022-11-30T06:31:09;60.75;;;23.02;;
44989;SDS011;30723;51.206;3.326;2022-11-30T06:33:35;60.97;;;22.00;;
44989;SDS011;30723;51.206;3.326;2022-11-30T06:36:01;57.00;;;22.67;;
44989;SDS011;30723;51.206;3.326;2022-11-30T06:38:27;62.40;;;23.98;;
44989;SDS011;30723;51.206;3.326;2022-11-30T06:40:54;62.35;;;23.48;;
44989;SDS011;30723;51.206;3.326;2022-11-30T06:43:26;55.78;;;21.10;;
44989;SDS011;30723;51.206;3.326;2022-11-30T06:45:56;57.22;;;23.15;;
44989;SDS011;30723;51.206;3.326;2022-11-30T06:48:21;64.28;;;22.83;;
44989;SDS011;30723;51.206;3.326;2022-11-30T06:50:47;62.45;;;22.25;;
44989;SDS011;30723;51.206;3.326;2022-11-30T06:53:13;59.78;;;22.15;;
44989;SDS011;30723;51.206;3.326;2022-11-30T06:55:38;61.92;;;23.33;;
44989;SDS011;30723;51.206;3.326;2022-11-30T06:58:06;65.15;;;22.83;;
44989;SDS011;30723;51.206;3.326;2022-11-30T07:00:33;57.70;;;23.85;;
44989;SDS011;30723;51.206;3.326;2022-11-30T07:02:59;58.92;;;22.75;;
44989;SDS011;30723;51.206;3.326;2022-11-30T07:05:24;64.50;;;22.42;;
44989;SDS011;30723;51.206;3.326;2022-11-30T07:07:50;75.00;;;25.98;;
44989;SDS011;30723;51.206;3.326;2022-11-30T07:10:16;58.42;;;24.17;;
44989;SDS011;30723;51.206;3.326;2022-11-30T07:12:42;65.65;;;25.58;;
44989;SDS011;30723;51.206;3.326;2022-11-30T07:15:09;63.42;;;24.15;;
44989;SDS011;30723;51.206;3.326;2022-11-30T07:17:35;70.85;;;25.80;;
44989;SDS011;30723;51.206;3.326;2022-11-30T07:20:01;64.28;;;24.38;;
44989;SDS011;30723;51.206;3.326;2022-11-30T07:22:27;73.63;;;25.83;;
44989;SDS011;30723;51.206;3.326;2022-11-30T07:24:53;72.13;;;24.60;;
44989;SDS011;30723;51.206;3.326;2022-11-30T07:27:37;73.50;;;25.15;;
44989;SDS011;30723;51.206;3.326;2022-11-30T07:30:03;74.07;;;25.27;;
44989;SDS011;30723;51.206;3.326;2022-11-30T07:32:30;76.45;;;25.15;;
44989;SDS011;30723;51.206;3.326;2022-11-30T07:34:56;83.97;;;27.65;;
44989;SDS011;30723;51.206;3.326;2022-11-30T07:37:22;86.97;;;26.38;;
44989;SDS011;30723;51.206;3.326;2022-11-30T07:39:48;87.60;;;27.52;;
44989;SDS011;30723;51.206;3.326;2022-11-30T07:42:14;87.65;;;28.10;;
44989;SDS011;30723;51.206;3.326;2022-11-30T07:44:41;94.32;;;28.48;;
44989;SDS011;30723;51.206;3.326;2022-11-30T07:47:07;98.50;;;27.67;;
44989;SDS011;30723;51.206;3.326;2022-11-30T07:49:32;115.90;;;30.02;;
44989;SDS011;30723;51.206;3.326;2022-11-30T07:51:58;104.28;;;28.83;;
44989;SDS011;30723;51.206;3.326;2022-11-30T07:54:24;101.43;;;29.63;;
44989;SDS011;30723;51.206;3.326;2022-11-30T07:56:50;105.03;;;29.90;;
44989;SDS011;30723;51.206;3.326;2022-11-30T07:59:15;99.68;;;28.08;;
44989;SDS011;30723;51.206;3.326;2022-11-30T08:01:41;115.22;;;31.83;;
44989;SDS011;30723;51.206;3.326;2022-11-30T08:04:07;110.45;;;42.35;;
44989;SDS011;30723;51.206;3.326;2022-11-30T08:06:33;108.90;;;30.33;;
44989;SDS011;30723;51.206;3.326;2022-11-30T08:09:00;108.78;;;30.50;;
44989;SDS011;30723;51.206;3.326;2022-11-30T08:11:28;113.15;;;30.15;;
44989;SDS011;30723;51.206;3.326;2022-11-30T08:13:57;80.45;;;26.35;;
44989;SDS011;30723;51.206;3.326;2022-11-30T08:16:24;92.93;;;28.55;;
44989;SDS011;30723;51.206;3.326;2022-11-30T08:18:51;98.63;;;28.42;;
44989;SDS011;30723;51.206;3.326;2022-11-30T08:21:20;87.85;;;27.58;;
44989;SDS011;30723;51.206;3.326;2022-11-30T08:23:50;114.68;;;33.33;;
44989;SDS011;30723;51.206;3.326;2022-11-30T08:26:23;102.18;;;28.92;;
44989;SDS011;30723;51.206;3.326;2022-11-30T08:28:51;104.50;;;27.83;;
44989;SDS011;30723;51.206;3.326;2022-11-30T08:31:18;85.70;;;26.23;;
44989;SDS011;30723;51.206;3.326;2022-11-30T08:33:49;107.25;;;30.02;;
44989;SDS011;30723;51.206;3.326;2022-11-30T08:36:19;111.25;;;31.25;;
44989;SDS011;30723;51.206;3.326;2022-11-30T08:38:46;117.60;;;32.22;;
44989;SDS011;30723;51.206;3.326;2022-11-30T08:41:13;97.82;;;28.92;;
44989;SDS011;30723;51.206;3.326;2022-11-30T08:43:41;107.10;;;31.65;;
44989;SDS011;30723;51.206;3.326;2022-11-30T08:46:08;206.93;;;100.18;;
44989;SDS011;30723;51.206;3.326;2022-11-30T08:48:35;106.63;;;33.95;;
44989;SDS011;30723;51.206;3.326;2022-11-30T08:51:02;96.80;;;31.60;;
44989;SDS011;30723;51.206;3.326;2022-11-30T08:53:29;103.47;;;29.90;;
44989;SDS011;30723;51.206;3.326;2022-11-30T08:55:56;108.32;;;31.95;;
44989;SDS011;30723;51.206;3.326;2022-11-30T08:58:23;108.07;;;34.30;;
44989;SDS011;30723;51.206;3.326;2022-11-30T09:00:49;106.15;;;31.88;;
44989;SDS011;30723;51.206;3.326;2022-11-30T09:03:15;114.18;;;31.15;;
44989;SDS011;30723;51.206;3.326;2022-11-30T09:05:41;97.13;;;30.30;;
44989;SDS011;30723;51.206;3.326;2022-11-30T09:08:06;108.82;;;31.13;;
44989;SDS011;30723;51.206;3.326;2022-11-30T09:10:32;98.05;;;30.05;;
44989;SDS011;30723;51.206;3.326;2022-11-30T09:12:58;102.18;;;31.30;;
44989;SDS011;30723;51.206;3.326;2022-11-30T09:15:24;106.13;;;30.63;;
44989;SDS011;30723;51.206;3.326;2022-11-30T09:17:49;96.28;;;31.17;;
44989;SDS011;30723;51.206;3.326;2022-11-30T09:20:15;97.75;;;30.67;;
44989;SDS011;30723;51.206;3.326;2022-11-30T09:22:41;110.18;;;35.92;;
44989;SDS011;30723;51.206;3.326;2022-11-30T09:25:07;91.43;;;29.23;;
44989;SDS011;30723;51.206;3.326;2022-11-30T09:27:34;89.10;;;29.08;;
44989;SDS011;30723;51.206;3.326;2022-11-30T09:30:00;101.70;;;29.98;;
44989;SDS011;30723;51.206;3.326;2022-11-30T09:32:26;82.57;;;29.42;;
44989;SDS011;30723;51.206;3.326;2022-11-30T09:34:53;82.90;;;27.80;;
44989;SDS011;30723;51.206;3.326;2022-11-30T09:37:18;86.63;;;28.60;;
44989;SDS011;30723;51.206;3.326;2022-11-30T09:39:44;87.78;;;31.90;;
44989;SDS011;30723;51.206;3.326;2022-11-30T09:45:06;83.72;;;28.83;;
44989;SDS011;30723;51.206;3.326;2022-11-30T09:50:55;83.20;;;27.55;;
44989;SDS011;30723;51.206;3.326;2022-11-30T09:56:19;81.65;;;29.88;;
44989;SDS011;30723;51.206;3.326;2022-11-30T09:58:54;100.97;;;37.08;;
44989;SDS011;30723;51.206;3.326;2022-11-30T10:01:23;81.18;;;30.58;;
44989;SDS011;30723;51.206;3.326;2022-11-30T10:03:49;82.18;;;28.95;;
44989;SDS011;30723;51.206;3.326;2022-11-30T10:09:06;78.20;;;32.22;;
44989;SDS011;30723;51.206;3.326;2022-11-30T10:20:47;77.93;;;28.60;;
44989;SDS011;30723;51.206;3.326;2022-11-30T10:26:44;86.85;;;29.55;;
44989;SDS011;30723;51.206;3.326;2022-11-30T10:29:18;84.22;;;30.75;;
44989;SDS011;30723;51.206;3.326;2022-11-30T10:31:46;88.47;;;31.95;;
44989;SDS011;30723;51.206;3.326;2022-11-30T10:37:32;90.72;;;33.53;;
44989;SDS011;30723;51.206;3.326;2022-11-30T10:42:33;92.82;;;31.85;;
44989;SDS011;30723;51.206;3.326;2022-11-30T10:45:13;89.18;;;36.97;;
44989;SDS011;30723;51.206;3.326;2022-11-30T10:47:45;99.47;;;33.38;;
44989;SDS011;30723;51.206;3.326;2022-11-30T10:50:42;103.07;;;32.42;;
44989;SDS011;30723;51.206;3.326;2022-11-30T10:53:09;93.18;;;33.28;;
44989;SDS011;30723;51.206;3.326;2022-11-30T10:55:40;106.55;;;35.25;;
44989;SDS011;30723;51.206;3.326;2022-11-30T11:00:49;105.78;;;36.22;;
44989;SDS011;30723;51.206;3.326;2022-11-30T11:03:28;87.00;;;33.47;;
44989;SDS011;30723;51.206;3.326;2022-11-30T11:08:48;104.53;;;34.72;;
44989;SDS011;30723;51.206;3.326;2022-11-30T11:19:41;115.68;;;38.38;;
44989;SDS011;30723;51.206;3.326;2022-11-30T11:22:17;97.80;;;35.05;;
44989;SDS011;30723;51.206;3.326;2022-11-30T11:24:49;88.55;;;34.90;;
44989;SDS011;30723;51.206;3.326;2022-11-30T11:27:27;81.95;;;33.80;;
44989;SDS011;30723;51.206;3.326;2022-11-30T11:30:17;93.50;;;36.15;;
44989;SDS011;30723;51.206;3.326;2022-11-30T11:32:57;72.18;;;30.77;;
44989;SDS011;30723;51.206;3.326;2022-11-30T11:36:12;76.43;;;33.70;;
44989;SDS011;30723;51.206;3.326;2022-11-30T11:38:19;82.70;;;33.38;;
44989;SDS011;30723;51.206;3.326;2022-11-30T11:41:09;96.88;;;36.03;;
44989;SDS011;30723;51.206;3.326;2022-11-30T11:46:57;82.40;;;34.58;;
44989;SDS011;30723;51.206;3.326;2022-11-30T11:49:29;79.78;;;36.17;;
44989;SDS011;30723;51.206;3.326;2022-11-30T11:52:03;92.15;;;34.45;;
44989;SDS011;30723;51.206;3.326;2022-11-30T11:54:39;89.82;;;34.55;;
44989;SDS011;30723;51.206;3.326;2022-11-30T11:57:12;84.87;;;35.63;;
44989;SDS011;30723;51.206;3.326;2022-11-30T11:59:53;84.97;;;34.75;;
44989;SDS011;30723;51.206;3.326;2022-11-30T12:05:26;85.82;;;41.67;;
44989;SDS011;30723;51.206;3.326;2022-11-30T12:11:12;69.85;;;30.63;;
44989;SDS011;30723;51.206;3.326;2022-11-30T12:13:51;76.20;;;31.50;;
44989;SDS011;30723;51.206;3.326;2022-11-30T12:16:23;134.90;;;32.25;;
44989;SDS011;30723;51.206;3.326;2022-11-30T12:18:59;155.02;;;32.35;;
44989;SDS011;30723;51.206;3.326;2022-11-30T12:35:23;75.97;;;33.42;;
44989;SDS011;30723;51.206;3.326;2022-11-30T12:38:11;83.50;;;34.50;;
44989;SDS011;30723;51.206;3.326;2022-11-30T12:46:14;103.00;;;33.50;;
44989;SDS011;30723;51.206;3.326;2022-11-30T12:49:07;155.27;;;32.92;;
44989;SDS011;30723;51.206;3.326;2022-11-30T12:51:45;129.30;;;33.30;;
44989;SDS011;30723;51.206;3.326;2022-11-30T12:56:56;89.63;;;35.03;;
44989;SDS011;30723;51.206;3.326;2022-11-30T12:59:34;82.10;;;37.15;;
44989;SDS011;30723;51.206;3.326;2022-11-30T13:02:39;70.97;;;32.28;;
44989;SDS011;30723;51.206;3.326;2022-11-30T13:05:33;81.00;;;36.45;;
44989;SDS011;30723;51.206;3.326;2022-11-30T13:10:56;82.22;;;38.75;;
44989;SDS011;30723;51.206;3.326;2022-11-30T13:13:30;80.53;;;37.03;;
44989;SDS011;30723;51.206;3.326;2022-11-30T13:15:58;90.82;;;39.40;;
44989;SDS011;30723;51.206;3.326;2022-11-30T13:18:27;83.43;;;40.75;;
44989;SDS011;30723;51.206;3.326;2022-11-30T13:20:56;86.20;;;39.70;;
44989;SDS011;30723;51.206;3.326;2022-11-30T13:23:31;72.15;;;36.13;;
44989;SDS011;30723;51.206;3.326;2022-11-30T13:34:27;67.18;;;35.35;;
44989;SDS011;30723;51.206;3.326;2022-11-30T13:39:51;67.95;;;34.40;;
44989;SDS011;30723;51.206;3.326;2022-11-30T13:45:26;66.53;;;33.53;;
44989;SDS011;30723;51.206;3.326;2022-11-30T13:47:59;63.88;;;32.83;;
44989;SDS011;30723;51.206;3.326;2022-11-30T13:50:54;67.13;;;34.45;;
44989;SDS011;30723;51.206;3.326;2022-11-30T13:53:24;67.15;;;33.50;;
44989;SDS011;30723;51.206;3.326;2022-11-30T13:55:55;84.10;;;37.78;;
44989;SDS011;30723;51.206;3.326;2022-11-30T13:58:25;70.25;;;34.75;;
44989;SDS011;30723;51.206;3.326;2022-11-30T14:03:28;79.32;;;37.17;;
44989;SDS011;30723;51.206;3.326;2022-11-30T14:05:58;75.10;;;37.20;;
44989;SDS011;30723;51.206;3.326;2022-11-30T14:08:37;76.65;;;37.97;;
44989;SDS011;30723;51.206;3.326;2022-11-30T14:13:50;77.38;;;35.92;;
44989;SDS011;30723;51.206;3.326;2022-11-30T14:16:20;84.65;;;37.20;;
44989;SDS011;30723;51.206;3.326;2022-11-30T14:18:48;84.03;;;38.33;;
44989;SDS011;30723;51.206;3.326;2022-11-30T14:24:00;84.93;;;37.33;;
44989;SDS011;30723;51.206;3.326;2022-11-30T14:26:36;85.93;;;38.42;;
44989;SDS011;30723;51.206;3.326;2022-11-30T14:31:56;83.32;;;36.92;;
44989;SDS011;30723;51.206;3.326;2022-11-30T14:34:30;82.90;;;37.97;;
44989;SDS011;30723;51.206;3.326;2022-11-30T14:37:02;75.18;;;36.58;;
44989;SDS011;30723;51.206;3.326;2022-11-30T14:40:00;83.70;;;37.03;;
44989;SDS011;30723;51.206;3.326;2022-11-30T14:42:31;83.60;;;36.92;;
44989;SDS011;30723;51.206;3.326;2022-11-30T14:44:58;83.38;;;38.45;;
44989;SDS011;30723;51.206;3.326;2022-11-30T14:49:51;77.63;;;37.92;;
44989;SDS011;30723;51.206;3.326;2022-11-30T14:52:34;88.28;;;38.17;;
44989;SDS011;30723;51.206;3.326;2022-11-30T15:00:46;87.78;;;38.42;;
44989;SDS011;30723;51.206;3.326;2022-11-30T15:03:17;89.78;;;38.10;;
44989;SDS011;30723;51.206;3.326;2022-11-30T15:06:12;91.53;;;39.00;;
44989;SDS011;30723;51.206;3.326;2022-11-30T15:08:40;99.85;;;43.13;;
44989;SDS011;30723;51.206;3.326;2022-11-30T15:11:11;104.80;;;44.08;;
44989;SDS011;30723;51.206;3.326;2022-11-30T15:13:45;99.32;;;40.90;;
44989;SDS011;30723;51.206;3.326;2022-11-30T15:18:48;105.10;;;43.15;;
44989;SDS011;30723;51.206;3.326;2022-11-30T15:21:19;107.00;;;43.20;;
44989;SDS011;30723;51.206;3.326;2022-11-30T15:23:50;105.82;;;41.75;;
44989;SDS011;30723;51.206;3.326;2022-11-30T15:26:19;101.38;;;43.53;;
44989;SDS011;30723;51.206;3.326;2022-11-30T15:29:05;115.47;;;44.05;;
44989;SDS011;30723;51.206;3.326;2022-11-30T15:31:38;117.78;;;44.70;;
44989;SDS011;30723;51.206;3.326;2022-11-30T15:34:06;108.57;;;42.13;;
44989;SDS011;30723;51.206;3.326;2022-11-30T15:36:45;117.22;;;43.58;;
44989;SDS011;30723;51.206;3.326;2022-11-30T15:39:17;116.03;;;43.20;;
44989;SDS011;30723;51.206;3.326;2022-11-30T15:41:45;119.85;;;45.97;;
44989;SDS011;30723;51.206;3.326;2022-11-30T15:49:58;118.88;;;44.72;;
44989;SDS011;30723;51.206;3.326;2022-11-30T15:52:25;122.68;;;44.08;;
44989;SDS011;30723;51.206;3.326;2022-11-30T15:57:23;119.90;;;44.83;;
44989;SDS011;30723;51.206;3.326;2022-11-30T16:02:38;116.57;;;42.40;;
44989;SDS011;30723;51.206;3.326;2022-11-30T16:10:20;122.15;;;44.10;;
44989;SDS011;30723;51.206;3.326;2022-11-30T16:13:05;121.07;;;45.58;;
44989;SDS011;30723;51.206;3.326;2022-11-30T16:15:32;126.57;;;45.55;;
44989;SDS011;30723;51.206;3.326;2022-11-30T16:18:21;139.13;;;47.55;;
44989;SDS011;30723;51.206;3.326;2022-11-30T16:20:48;132.73;;;44.38;;
44989;SDS011;30723;51.206;3.326;2022-11-30T16:23:17;136.98;;;46.80;;
44989;SDS011;30723;51.206;3.326;2022-11-30T16:25:44;139.40;;;54.38;;
44989;SDS011;30723;51.206;3.326;2022-11-30T16:28:12;137.77;;;49.88;;
44989;SDS011;30723;51.206;3.326;2022-11-30T16:30:39;134.38;;;49.95;;
44989;SDS011;30723;51.206;3.326;2022-11-30T16:33:13;162.90;;;73.13;;
44989;SDS011;30723;51.206;3.326;2022-11-30T16:35:45;133.90;;;46.83;;
44989;SDS011;30723;51.206;3.326;2022-11-30T16:38:18;151.77;;;50.50;;
44989;SDS011;30723;51.206;3.326;2022-11-30T16:40:44;149.55;;;46.33;;
44989;SDS011;30723;51.206;3.326;2022-11-30T16:43:10;147.90;;;47.03;;
44989;SDS011;30723;51.206;3.326;2022-11-30T16:45:37;160.57;;;46.55;;
44989;SDS011;30723;51.206;3.326;2022-11-30T16:48:04;143.80;;;48.13;;
44989;SDS011;30723;51.206;3.326;2022-11-30T16:50:31;166.10;;;49.38;;
44989;SDS011;30723;51.206;3.326;2022-11-30T16:53:02;183.68;;;47.55;;
44989;SDS011;30723;51.206;3.326;2022-11-30T16:55:31;188.77;;;47.50;;